Time;durP1;ratioP1;P1;durP2;ratioP2;P2;SDS_P1;SDS_P2;PMS_P1;PMS_P2;Temp;Humidity;BMP_temperature;BMP_pressure;BME280_temperature;BME280_humidity;BME280_pressure;Samples;Min_cycle;Max_cycle;Signal;HPM_P1;HPM_P2
2024/03/23 00:00:03;;;;;;;19.05;6.40;;;9.20;99.90;;;;;;5057267;28;20091;-44
2024/03/23 00:02:29;;;;;;;28.40;6.22;;;9.20;99.90;;;;;;5057261;28;20021;-41
2024/03/23 00:04:56;;;;;;;21.20;4.88;;;9.20;99.90;;;;;;5058299;28;20029;-43
2024/03/23 00:07:23;;;;;;;15.70;5.80;;;9.20;99.90;;;;;;5058434;28;20033;-44
2024/03/23 00:09:49;;;;;;;21.20;4.93;;;9.20;99.90;;;;;;5058430;28;20375;-49
2024/03/23 00:12:16;;;;;;;22.90;5.20;;;9.20;99.90;;;;;;5058433;28;20319;-52
2024/03/23 00:14:42;;;;;;;18.92;5.57;;;9.20;99.90;;;;;;5058253;28;20588;-44
2024/03/23 00:17:09;;;;;;;37.83;6.82;;;9.30;99.90;;;;;;5058690;28;20470;-42
2024/03/23 00:19:35;;;;;;;26.25;5.18;;;9.30;99.90;;;;;;5058470;28;20025;-55
2024/03/23 00:22:02;;;;;;;16.50;5.47;;;9.30;99.90;;;;;;5058347;28;20049;-55
2024/03/23 00:24:29;;;;;;;19.98;5.90;;;9.20;99.90;;;;;;5046570;28;20393;-53
2024/03/23 00:26:56;;;;;;;13.77;4.80;;;9.10;99.90;;;;;;5037047;28;20032;-55
2024/03/23 00:29:23;;;;;;;23.67;5.07;;;9.10;99.90;;;;;;5038254;28;20112;-55
2024/03/23 00:31:49;;;;;;;19.95;4.95;;;9.10;99.90;;;;;;5038160;28;20478;-56
2024/03/23 00:34:16;;;;;;;17.83;5.20;;;9.00;99.90;;;;;;5038138;28;20022;-56
2024/03/23 00:36:42;;;;;;;20.17;4.75;;;9.00;99.90;;;;;;5034266;28;20120;-55
2024/03/23 00:39:09;;;;;;;23.20;4.50;;;8.90;99.90;;;;;;5045335;28;20031;-55
2024/03/23 00:41:35;;;;;;;10.95;4.13;;;8.90;99.90;;;;;;5054909;28;20480;-55
2024/03/23 00:44:02;;;;;;;14.60;6.13;;;8.90;99.90;;;;;;5054809;28;20025;-56
2024/03/23 00:46:28;;;;;;;14.43;4.05;;;8.90;99.90;;;;;;5055053;28;20470;-56
2024/03/23 00:48:55;;;;;;;15.98;4.07;;;8.90;99.90;;;;;;5054534;28;20029;-56
2024/03/23 00:51:21;;;;;;;19.60;5.65;;;9.00;99.90;;;;;;5054687;28;20040;-59
2024/03/23 00:53:47;;;;;;;19.98;4.35;;;9.00;99.90;;;;;;5054539;28;20025;-55
2024/03/23 00:56:13;;;;;;;19.13;4.65;;;9.00;99.90;;;;;;5054516;28;20669;-59
2024/03/23 00:58:39;;;;;;;21.10;3.85;;;9.00;99.90;;;;;;5054611;28;20025;-57
2024/03/23 01:01:04;;;;;;;11.82;4.60;;;9.00;99.90;;;;;;5054661;28;20401;-55
2024/03/23 01:03:30;;;;;;;19.02;4.80;;;9.00;99.90;;;;;;5054462;28;20036;-55
2024/03/23 01:06:00;;;;;;;15.38;4.32;;;9.00;99.90;;;;;;5054414;28;20029;-57
2024/03/23 01:08:26;;;;;;;16.20;3.75;;;9.00;99.90;;;;;;5054491;28;20508;-55
2024/03/23 01:10:59;;;;;;;14.43;3.78;;;8.90;99.90;;;;;;5054357;28;20025;-56
2024/03/23 01:13:26;;;;;;;15.18;4.38;;;8.90;99.90;;;;;;5054163;28;20122;-56
2024/03/23 01:15:52;;;;;;;18.50;3.90;;;8.90;99.90;;;;;;5054201;28;20049;-56
2024/03/23 01:18:22;;;;;;;12.77;3.35;;;8.90;99.90;;;;;;5054427;28;20094;-55
2024/03/23 01:20:48;;;;;;;14.85;4.45;;;8.80;99.90;;;;;;5054074;28;20041;-55
2024/03/23 01:23:14;;;;;;;17.88;3.20;;;8.80;99.90;;;;;;5054127;28;20025;-55
2024/03/23 01:25:40;;;;;;;19.27;3.88;;;8.80;99.90;;;;;;5054087;28;20074;-54
2024/03/23 01:28:06;;;;;;;7.90;3.15;;;8.70;99.90;;;;;;5054094;28;20040;-44
2024/03/23 01:30:32;;;;;;;7.43;3.00;;;8.70;99.90;;;;;;5053822;28;20025;-46
2024/03/23 01:32:58;;;;;;;12.98;3.45;;;8.60;99.90;;;;;;5053928;28;20024;-44
2024/03/23 01:35:23;;;;;;;12.48;3.40;;;8.60;99.90;;;;;;5053907;28;20025;-44
2024/03/23 01:37:49;;;;;;;21.38;3.72;;;8.60;99.90;;;;;;5053781;28;20078;-44
2024/03/23 01:40:17;;;;;;;24.55;4.35;;;8.50;99.90;;;;;;5052415;28;20031;-42
2024/03/23 01:42:42;;;;;;;18.55;5.00;;;8.50;99.90;;;;;;5053527;28;20489;-43
2024/03/23 01:45:12;;;;;;;17.20;4.22;;;8.40;99.90;;;;;;5053640;28;20025;-43
2024/03/23 01:47:37;;;;;;;25.05;4.10;;;8.30;99.90;;;;;;5053337;28;20083;-44
2024/03/23 01:50:04;;;;;;;21.55;3.53;;;8.30;99.90;;;;;;5053525;28;20029;-42
2024/03/23 01:52:30;;;;;;;23.63;3.47;;;8.30;99.90;;;;;;5053496;28;20600;-41
2024/03/23 01:54:56;;;;;;;15.35;3.00;;;8.20;99.90;;;;;;5053429;28;20112;-43
2024/03/23 01:57:22;;;;;;;6.13;2.72;;;8.20;99.90;;;;;;5053417;28;20112;-46
2024/03/23 01:59:48;;;;;;;18.30;3.13;;;8.20;99.90;;;;;;5052047;28;20048;-42
2024/03/23 02:02:14;;;;;;;19.23;3.50;;;8.20;99.90;;;;;;5053026;28;20397;-42
2024/03/23 02:04:39;;;;;;;17.08;3.30;;;8.10;99.90;;;;;;5051365;28;20032;-45
2024/03/23 02:07:07;;;;;;;16.48;3.45;;;8.10;99.90;;;;;;5045007;28;20017;-55
2024/03/23 02:09:33;;;;;;;19.27;3.53;;;8.10;99.90;;;;;;5042412;28;20064;-55
2024/03/23 02:12:01;;;;;;;13.82;3.85;;;8.00;99.90;;;;;;5052079;28;20477;-55
2024/03/23 02:14:27;;;;;;;11.43;3.60;;;8.10;99.90;;;;;;5046246;28;20513;-54
2024/03/23 02:16:53;;;;;;;11.50;2.85;;;8.00;99.90;;;;;;5052878;28;20062;-55
2024/03/23 02:19:18;;;;;;;16.85;2.58;;;8.00;99.90;;;;;;5052989;28;20398;-56
2024/03/23 02:21:44;;;;;;;13.98;2.90;;;8.00;99.90;;;;;;5052748;28;20044;-58
2024/03/23 02:24:10;;;;;;;8.15;3.80;;;7.90;99.90;;;;;;5053186;28;20176;-56
2024/03/23 02:26:35;;;;;;;10.38;2.90;;;7.90;99.90;;;;;;5052882;28;20025;-56
2024/03/23 02:29:01;;;;;;;13.25;2.95;;;7.90;99.90;;;;;;5053061;28;20071;-57
2024/03/23 02:31:27;;;;;;;20.52;3.67;;;7.90;99.90;;;;;;5052804;28;20464;-54
2024/03/23 02:33:52;;;;;;;10.32;3.40;;;7.80;99.90;;;;;;5052700;28;20116;-55
2024/03/23 02:36:18;;;;;;;11.30;3.00;;;7.80;99.90;;;;;;5052752;28;20454;-55
2024/03/23 02:38:44;;;;;;;13.27;3.03;;;7.70;99.90;;;;;;5052912;28;20043;-53
2024/03/23 02:41:10;;;;;;;18.73;4.15;;;7.70;99.90;;;;;;5052459;28;20033;-56
2024/03/23 02:43:36;;;;;;;10.15;3.30;;;7.60;99.90;;;;;;5052627;28;20040;-56
2024/03/23 02:46:02;;;;;;;8.15;2.92;;;7.60;99.90;;;;;;5052432;28;20070;-56
2024/03/23 02:48:28;;;;;;;12.23;2.28;;;7.50;99.90;;;;;;5052385;28;20032;-55
2024/03/23 02:50:54;;;;;;;13.77;3.00;;;7.50;99.90;;;;;;5052772;28;20029;-55
2024/03/23 02:53:19;;;;;;;15.15;2.75;;;7.50;99.90;;;;;;5052400;28;20056;-56
2024/03/23 02:55:45;;;;;;;19.33;2.67;;;7.40;99.90;;;;;;5052288;28;20044;-56
2024/03/23 02:58:11;;;;;;;13.57;2.53;;;7.40;99.90;;;;;;5051794;28;20025;-55
2024/03/23 03:00:37;;;;;;;8.65;2.95;;;7.40;99.90;;;;;;5052253;28;20112;-56
2024/03/23 03:03:03;;;;;;;14.93;2.70;;;7.40;99.90;;;;;;5052598;28;20171;-55
2024/03/23 03:05:28;;;;;;;10.27;2.70;;;7.30;99.90;;;;;;5050892;28;20028;-55
2024/03/23 03:07:54;;;;;;;17.65;2.72;;;7.30;99.90;;;;;;5042295;28;20052;-56
2024/03/23 03:10:20;;;;;;;18.15;3.03;;;7.30;99.90;;;;;;5052210;28;20029;-56
2024/03/23 03:12:45;;;;;;;5.95;2.17;;;7.20;99.90;;;;;;5052249;28;20500;-54
2024/03/23 03:15:11;;;;;;;6.45;2.17;;;7.20;99.90;;;;;;5052057;28;20041;-56
2024/03/23 03:17:36;;;;;;;9.50;2.03;;;7.20;99.90;;;;;;5052540;28;20109;-54
2024/03/23 03:20:04;;;;;;;6.78;2.85;;;7.20;99.90;;;;;;5051612;28;20036;-55
2024/03/23 03:22:30;;;;;;;10.13;2.67;;;7.20;99.90;;;;;;5051087;28;20532;-56
2024/03/23 03:24:55;;;;;;;5.47;1.95;;;7.10;99.90;;;;;;5052144;28;20033;-56
2024/03/23 03:27:22;;;;;;;11.18;2.70;;;7.10;99.90;;;;;;5052120;28;20500;-58
2024/03/23 03:29:48;;;;;;;9.50;2.97;;;7.00;99.90;;;;;;5052319;28;20469;-53
2024/03/23 03:32:13;;;;;;;11.75;2.50;;;7.00;99.90;;;;;;5051678;28;20082;-53
2024/03/23 03:34:39;;;;;;;19.70;2.53;;;7.00;99.90;;;;;;5051719;28;20389;-55
2024/03/23 03:37:05;;;;;;;15.35;3.20;;;6.90;99.90;;;;;;5051927;28;20025;-41
2024/03/23 03:39:31;;;;;;;6.88;1.75;;;6.90;99.90;;;;;;5051884;28;20024;-48
2024/03/23 03:41:56;;;;;;;12.52;2.03;;;6.90;99.90;;;;;;5050634;28;20028;-44
2024/03/23 03:44:22;;;;;;;7.35;2.15;;;6.90;99.90;;;;;;5051201;28;20498;-42
2024/03/23 03:46:48;;;;;;;7.18;2.40;;;6.90;99.90;;;;;;5051819;28;20412;-40
2024/03/23 03:49:13;;;;;;;11.40;2.55;;;6.90;99.90;;;;;;5051108;28;20029;-56
2024/03/23 03:51:39;;;;;;;10.57;2.70;;;6.80;99.90;;;;;;5052054;28;20128;-56
2024/03/23 03:54:05;;;;;;;12.40;1.85;;;6.80;99.90;;;;;;5051895;28;20036;-56
2024/03/23 03:56:30;;;;;;;12.68;2.53;;;6.80;99.90;;;;;;5051650;28;20036;-55
2024/03/23 03:58:56;;;;;;;15.15;2.58;;;6.70;99.90;;;;;;5051549;28;20021;-43
2024/03/23 04:01:21;;;;;;;10.27;2.30;;;6.70;99.90;;;;;;5049860;28;20029;-44
2024/03/23 04:03:47;;;;;;;9.73;2.00;;;6.60;99.90;;;;;;5051041;28;20063;-44
2024/03/23 04:06:19;;;;;;;6.13;2.50;;;6.60;99.90;;;;;;5051735;28;20029;-45
2024/03/23 04:08:45;;;;;;;11.35;2.08;;;6.60;99.90;;;;;;5051701;28;20087;-42
2024/03/23 04:11:10;;;;;;;14.30;3.05;;;6.60;99.90;;;;;;5052509;28;20029;-44
2024/03/23 04:13:36;;;;;;;10.70;2.50;;;6.50;99.90;;;;;;5055467;28;20075;-44
2024/03/23 04:16:02;;;;;;;9.60;1.95;;;6.50;99.90;;;;;;5055261;28;20055;-46
2024/03/23 04:18:28;;;;;;;8.63;2.03;;;6.50;99.90;;;;;;5055198;28;20033;-45
2024/03/23 04:20:53;;;;;;;13.48;2.13;;;6.50;99.90;;;;;;5053228;28;20075;-44
2024/03/23 04:23:19;;;;;;;12.63;2.17;;;6.50;99.90;;;;;;5053923;28;20029;-43
2024/03/23 04:25:45;;;;;;;7.95;1.30;;;6.40;99.90;;;;;;5055244;28;20056;-43
2024/03/23 04:28:10;;;;;;;12.63;1.42;;;6.40;99.90;;;;;;5054881;28;20116;-42
2024/03/23 04:30:36;;;;;;;5.00;1.30;;;6.40;99.90;;;;;;5055113;28;20474;-46
2024/03/23 04:33:02;;;;;;;8.40;1.70;;;6.40;99.90;;;;;;5054977;28;20033;-40
2024/03/23 04:35:28;;;;;;;4.05;1.20;;;6.40;99.90;;;;;;5054842;28;20075;-44
2024/03/23 04:37:55;;;;;;;7.47;1.40;;;6.40;99.90;;;;;;5054746;28;20108;-41
2024/03/23 04:40:21;;;;;;;10.27;1.30;;;6.40;99.90;;;;;;5054978;28;20021;-48
2024/03/23 04:42:47;;;;;;;10.55;1.88;;;6.30;99.90;;;;;;5054843;28;20098;-44
2024/03/23 04:45:13;;;;;;;6.38;1.33;;;6.30;99.90;;;;;;5050530;28;20474;-52
2024/03/23 04:47:38;;;;;;;7.22;1.13;;;6.30;99.90;;;;;;5035169;28;20026;-56
2024/03/23 04:50:05;;;;;;;7.80;1.85;;;6.30;99.90;;;;;;5052347;28;20056;-56
2024/03/23 04:52:30;;;;;;;1.05;0.80;;;6.20;99.90;;;;;;5054952;28;20033;-55
2024/03/23 04:54:56;;;;;;;6.25;1.40;;;6.20;99.90;;;;;;5054979;28;20388;-56
2024/03/23 04:57:22;;;;;;;11.57;1.48;;;6.20;99.90;;;;;;5054790;28;20496;-53
2024/03/23 04:59:48;;;;;;;6.07;1.33;;;6.10;99.90;;;;;;5054434;28;20036;-59
2024/03/23 05:02:14;;;;;;;8.10;1.63;;;6.10;99.90;;;;;;5054767;28;20527;-55
2024/03/23 05:04:40;;;;;;;7.45;1.00;;;6.10;99.90;;;;;;5054279;28;20113;-55
2024/03/23 05:07:06;;;;;;;3.70;1.10;;;6.10;99.90;;;;;;5054419;28;20107;-57
2024/03/23 05:09:32;;;;;;;5.03;1.17;;;6.10;99.90;;;;;;5054366;28;20055;-56
2024/03/23 05:12:02;;;;;;;6.10;1.33;;;6.10;99.90;;;;;;5054375;28;20021;-60
2024/03/23 05:14:27;;;;;;;14.68;1.85;;;6.10;99.90;;;;;;5053789;28;20075;-55
2024/03/23 05:16:55;;;;;;;5.97;0.85;;;6.20;99.90;;;;;;5054473;28;20053;-54
2024/03/23 05:19:21;;;;;;;8.32;1.00;;;6.20;99.90;;;;;;5053851;28;20524;-55
2024/03/23 05:21:46;;;;;;;7.45;1.30;;;6.20;99.90;;;;;;5053634;28;20072;-55
2024/03/23 05:24:12;;;;;;;4.70;1.15;;;6.20;99.90;;;;;;5046481;28;20072;-56
2024/03/23 05:26:38;;;;;;;11.57;1.75;;;6.20;99.90;;;;;;5034252;28;20076;-56
2024/03/23 05:29:04;;;;;;;1.80;0.68;;;6.20;99.90;;;;;;5034127;28;20026;-56
2024/03/23 05:31:32;;;;;;;4.15;0.88;;;6.20;99.90;;;;;;5034346;28;20151;-56
2024/03/23 05:33:57;;;;;;;7.82;1.60;;;6.30;99.90;;;;;;5038516;28;20024;-56
2024/03/23 05:36:26;;;;;;;9.90;1.50;;;6.30;99.90;;;;;;5053890;28;20542;-57
2024/03/23 05:38:51;;;;;;;5.28;1.05;;;6.30;99.90;;;;;;5053231;28;20037;-55
2024/03/23 05:41:17;;;;;;;6.05;1.08;;;6.40;99.90;;;;;;5053778;28;20036;-57
2024/03/23 05:43:43;;;;;;;6.40;0.93;;;6.40;99.90;;;;;;5051904;28;20032;-58
2024/03/23 05:46:08;;;;;;;11.05;1.45;;;6.40;99.90;;;;;;5041613;28;20428;-56
2024/03/23 05:48:34;;;;;;;8.73;0.93;;;6.40;99.90;;;;;;5033659;28;20022;-56
2024/03/23 05:51:00;;;;;;;5.93;1.15;;;6.50;99.90;;;;;;5052998;28;20058;-56
2024/03/23 05:53:26;;;;;;;13.75;1.55;;;6.40;99.90;;;;;;5051768;28;20036;-54
2024/03/23 05:55:59;;;;;;;11.57;1.17;;;6.40;99.90;;;;;;5033579;28;20052;-50
2024/03/23 05:58:25;;;;;;;11.82;1.95;;;6.40;99.90;;;;;;5038268;28;20529;-54
2024/03/23 06:00:58;;;;;;;9.25;1.23;;;6.40;99.90;;;;;;5053126;28;20098;-54
2024/03/23 06:03:24;;;;;;;22.27;2.33;;;6.30;99.90;;;;;;5053418;28;20028;-55
2024/03/23 06:05:49;;;;;;;10.65;1.17;;;6.30;99.90;;;;;;5053018;28;20670;-56
2024/03/23 06:08:15;;;;;;;11.25;1.55;;;6.30;99.90;;;;;;5052017;28;20374;-56
2024/03/23 06:10:40;;;;;;;8.40;1.58;;;6.40;99.90;;;;;;5052683;28;20048;-55
2024/03/23 06:13:06;;;;;;;2.78;1.13;;;6.30;99.90;;;;;;5053147;28;20104;-55
2024/03/23 06:15:32;;;;;;;6.60;1.30;;;6.30;99.90;;;;;;5052422;28;20588;-55
2024/03/23 06:17:58;;;;;;;7.05;1.75;;;6.40;99.90;;;;;;5053407;28;20033;-56
2024/03/23 06:20:24;;;;;;;5.40;1.48;;;6.40;99.90;;;;;;5052325;28;20021;-56
2024/03/23 06:22:49;;;;;;;15.50;1.92;;;6.40;99.90;;;;;;5053259;28;20539;-58
2024/03/23 06:25:15;;;;;;;6.18;0.93;;;6.40;99.90;;;;;;5053050;28;20164;-58
2024/03/23 06:27:41;;;;;;;7.38;1.30;;;6.50;99.90;;;;;;5052995;28;20033;-56
2024/03/23 06:30:07;;;;;;;15.00;1.40;;;6.50;99.90;;;;;;5052461;28;20080;-56
2024/03/23 06:32:33;;;;;;;5.95;1.20;;;6.60;99.90;;;;;;5052702;28;20631;-55
2024/03/23 06:34:59;;;;;;;8.85;1.77;;;6.60;99.90;;;;;;5051815;28;20071;-55
2024/03/23 06:37:24;;;;;;;5.82;1.08;;;6.70;99.90;;;;;;5052858;28;20551;-55
2024/03/23 06:39:50;;;;;;;5.88;1.35;;;6.80;99.90;;;;;;5052322;28;20223;-56
2024/03/23 06:42:15;;;;;;;6.45;2.10;;;6.80;99.90;;;;;;5052833;28;20029;-56
2024/03/23 06:44:41;;;;;;;13.70;1.73;;;6.90;99.90;;;;;;5052591;28;20029;-50
2024/03/23 06:47:07;;;;;;;12.95;1.77;;;6.90;99.90;;;;;;5037373;28;20021;-56
2024/03/23 06:49:32;;;;;;;7.80;1.55;;;6.90;99.90;;;;;;5052487;28;20025;-56
2024/03/23 06:51:58;;;;;;;14.63;1.77;;;6.90;99.90;;;;;;5033137;28;20389;-56
2024/03/23 06:54:24;;;;;;;12.07;1.77;;;7.00;99.90;;;;;;5032885;28;20029;-45
2024/03/23 06:56:50;;;;;;;6.47;1.50;;;7.10;99.90;;;;;;5032560;28;20394;-44
2024/03/23 06:59:16;;;;;;;5.95;1.45;;;7.30;99.90;;;;;;5032764;28;20026;-45
2024/03/23 07:01:42;;;;;;;4.72;1.65;;;7.50;99.90;;;;;;5049773;28;20548;-45
2024/03/23 07:04:08;;;;;;;5.93;1.58;;;7.70;99.90;;;;;;5052288;28;20112;-44
2024/03/23 07:06:33;;;;;;;7.88;2.25;;;7.80;99.90;;;;;;5051969;28;20036;-45
2024/03/23 07:08:59;;;;;;;7.55;2.33;;;7.80;99.90;;;;;;5052566;28;20032;-43
2024/03/23 07:11:25;;;;;;;5.03;1.90;;;7.80;99.90;;;;;;5051623;28;20108;-46
2024/03/23 07:13:52;;;;;;;14.50;1.88;;;7.80;99.90;;;;;;5051691;28;20033;-42
2024/03/23 07:16:18;;;;;;;9.57;2.25;;;7.80;99.90;;;;;;5051006;28;20033;-47
2024/03/23 07:18:44;;;;;;;11.20;1.42;;;7.80;99.90;;;;;;5052184;28;20116;-47
2024/03/23 07:21:09;;;;;;;6.70;1.83;;;7.90;99.90;;;;;;5051495;28;20025;-42
2024/03/23 07:23:35;;;;;;;12.23;1.60;;;8.00;99.90;;;;;;5052137;28;20017;-47
2024/03/23 07:26:05;;;;;;;8.05;1.67;;;7.90;99.90;;;;;;5052373;28;20024;-46
2024/03/23 07:28:35;;;;;;;8.25;2.30;;;7.90;99.90;;;;;;5051401;28;20036;-45
2024/03/23 07:31:09;;;;;;;15.73;1.60;;;8.00;99.90;;;;;;5051543;28;20025;-47
2024/03/23 07:33:36;;;;;;;8.55;1.80;;;8.00;99.90;;;;;;5051942;28;20474;-46
2024/03/23 07:36:02;;;;;;;7.13;1.75;;;8.10;99.90;;;;;;5050968;28;20029;-44
2024/03/23 07:38:29;;;;;;;12.38;1.58;;;8.20;99.90;;;;;;5050609;28;20397;-46
2024/03/23 07:41:04;;;;;;;8.25;1.77;;;8.40;99.90;;;;;;5051911;28;20025;-42
2024/03/23 07:43:30;;;;;;;8.13;1.08;;;8.60;99.90;;;;;;5051922;28;20025;-45
2024/03/23 07:45:55;;;;;;;11.65;1.95;;;8.80;99.90;;;;;;5053060;28;20102;-42
2024/03/23 07:48:24;;;;;;;3.97;1.20;;;8.80;99.90;;;;;;5055920;28;20084;-45
2024/03/23 07:51:17;;;;;;;9.68;1.40;;;8.70;99.90;;;;;;5055527;28;20029;-43
2024/03/23 07:53:48;;;;;;;9.05;1.38;;;8.60;99.90;;;;;;5054139;28;20528;-42
2024/03/23 07:56:15;;;;;;;8.93;1.17;;;8.70;99.90;;;;;;5055405;28;20025;-43
2024/03/23 07:58:41;;;;;;;3.88;0.90;;;9.00;99.90;;;;;;5038053;28;20473;-43
2024/03/23 08:01:09;;;;;;;15.32;1.70;;;9.20;99.90;;;;;;5054747;28;20033;-45
2024/03/23 08:03:36;;;;;;;3.53;1.38;;;9.20;99.90;;;;;;5055293;28;20049;-41
2024/03/23 08:06:08;;;;;;;15.15;1.70;;;9.00;99.90;;;;;;5055079;28;20354;-47
2024/03/23 08:08:34;;;;;;;5.55;1.40;;;8.90;99.90;;;;;;5055723;28;20017;-46
2024/03/23 08:10:59;;;;;;;7.90;1.45;;;8.80;99.90;;;;;;5055044;28;20031;-52
2024/03/23 08:13:26;;;;;;;6.05;1.23;;;8.70;99.90;;;;;;5055017;28;20028;-51
2024/03/23 08:15:51;;;;;;;11.40;1.40;;;8.70;99.90;;;;;;5055306;28;20053;-41
2024/03/23 08:18:17;;;;;;;2.60;1.83;;;8.80;99.90;;;;;;5055652;28;20370;-42
2024/03/23 08:20:43;;;;;;;9.68;1.73;;;8.90;99.90;;;;;;5053497;28;20025;-44
2024/03/23 08:23:08;;;;;;;12.30;2.10;;;8.80;99.90;;;;;;5052994;28;20454;-45
2024/03/23 08:25:35;;;;;;;11.48;1.35;;;8.70;99.90;;;;;;5055338;28;20031;-47
2024/03/23 08:28:01;;;;;;;16.23;1.65;;;8.50;99.90;;;;;;5055547;28;20523;-46
2024/03/23 08:30:28;;;;;;;8.77;1.05;;;8.60;99.90;;;;;;5054109;28;20023;-45
2024/03/23 08:32:53;;;;;;;11.90;1.50;;;8.50;99.90;;;;;;5035083;28;20068;-45
2024/03/23 08:35:19;;;;;;;6.05;1.25;;;8.40;99.90;;;;;;5046971;28;20578;-44
2024/03/23 08:37:45;;;;;;;12.57;2.47;;;8.40;99.90;;;;;;5055179;28;20521;-46
2024/03/23 08:40:11;;;;;;;7.03;0.90;;;8.30;99.90;;;;;;5054901;28;20025;-43
2024/03/23 08:42:37;;;;;;;5.30;0.93;;;8.30;99.90;;;;;;5054869;28;20025;-48
2024/03/23 08:45:03;;;;;;;8.30;0.82;;;8.20;99.90;;;;;;5054764;28;20053;-45
2024/03/23 08:47:28;;;;;;;9.00;1.60;;;8.30;99.90;;;;;;5054992;28;20389;-41
2024/03/23 08:49:55;;;;;;;11.65;1.60;;;8.40;99.90;;;;;;5053503;28;20385;-44
2024/03/23 08:52:23;;;;;;;6.68;1.60;;;8.50;99.90;;;;;;5054831;28;20366;-45
2024/03/23 08:54:48;;;;;;;10.48;1.70;;;8.90;99.90;;;;;;5055017;28;20028;-43
2024/03/23 08:57:14;;;;;;;7.50;1.75;;;9.20;99.90;;;;;;5059241;28;20496;-48
2024/03/23 08:59:39;;;;;;;4.03;1.52;;;9.60;99.90;;;;;;5074836;28;20024;-49
2024/03/23 09:02:05;;;;;;;10.60;1.67;;;9.70;99.90;;;;;;5073671;28;20024;-43
2024/03/23 09:04:31;;;;;;;4.68;1.63;;;9.80;99.90;;;;;;5053532;28;20401;-49
2024/03/23 09:06:58;;;;;;;7.60;1.02;;;10.10;99.90;;;;;;5054692;28;20021;-46
2024/03/23 09:09:24;;;;;;;11.38;2.38;;;10.30;99.90;;;;;;5054522;28;20017;-54
2024/03/23 09:11:50;;;;;;;11.80;1.35;;;10.10;99.90;;;;;;5052068;28;20040;-48
2024/03/23 09:14:15;;;;;;;8.63;0.98;;;10.10;99.90;;;;;;5054098;28;20520;-45
2024/03/23 09:16:41;;;;;;;3.25;1.13;;;10.30;99.90;;;;;;5054122;28;20033;-46
2024/03/23 09:19:07;;;;;;;4.25;1.00;;;10.30;99.90;;;;;;5052915;28;20025;-48
2024/03/23 09:21:33;;;;;;;9.82;1.55;;;10.60;99.90;;;;;;5053798;28;20052;-46
2024/03/23 09:23:58;;;;;;;11.85;1.55;;;10.70;99.90;;;;;;5054001;28;20021;-50
2024/03/23 09:26:24;;;;;;;6.68;1.17;;;10.40;99.90;;;;;;5054129;28;20464;-51
2024/03/23 09:28:50;;;;;;;5.32;1.23;;;9.90;99.90;;;;;;5053882;28;20017;-45
2024/03/23 09:31:15;;;;;;;11.18;1.50;;;9.60;99.90;;;;;;5053659;28;20382;-50
2024/03/23 09:33:41;;;;;;;2.78;0.93;;;9.30;99.90;;;;;;5054119;28;20614;-46
2024/03/23 09:36:08;;;;;;;6.00;1.15;;;9.20;99.90;;;;;;5052933;28;20551;-49
2024/03/23 09:38:34;;;;;;;7.18;1.75;;;9.20;99.90;;;;;;5053879;28;20040;-48
2024/03/23 09:41:00;;;;;;;14.93;1.42;;;9.00;99.90;;;;;;5053868;28;20025;-46
2024/03/23 09:43:26;;;;;;;9.40;2.28;;;8.80;99.90;;;;;;5053787;28;20151;-51
2024/03/23 09:45:53;;;;;;;14.85;1.65;;;8.80;99.90;;;;;;5053626;28;20096;-44
2024/03/23 09:48:19;;;;;;;6.10;1.30;;;8.70;99.90;;;;;;5052482;28;20023;-49
2024/03/23 09:50:46;;;;;;;9.10;1.40;;;8.70;99.90;;;;;;5053782;28;20021;-48
2024/03/23 09:53:13;;;;;;;10.80;1.25;;;8.80;99.90;;;;;;5054081;28;20028;-44
2024/03/23 09:55:41;;;;;;;7.90;1.50;;;9.20;99.90;;;;;;5053696;28;20021;-42
2024/03/23 09:58:08;;;;;;;5.00;1.58;;;9.60;99.90;;;;;;5052719;28;20466;-44
2024/03/23 10:00:34;;;;;;;15.32;1.35;;;9.80;99.90;;;;;;5053950;28;20416;-41
2024/03/23 10:03:04;;;;;;;8.73;2.13;;;9.90;99.90;;;;;;5053209;28;20024;-50
2024/03/23 10:05:36;;;;;;;12.65;1.65;;;9.70;99.90;;;;;;5053301;28;20025;-45
2024/03/23 10:08:14;;;;;;;11.90;1.58;;;9.60;99.90;;;;;;5053290;28;20028;-43
2024/03/23 10:10:40;;;;;;;11.02;1.42;;;9.50;99.90;;;;;;5053214;28;20032;-46
2024/03/23 10:13:05;;;;;;;9.18;2.08;;;9.70;99.90;;;;;;5053222;28;20021;-49
2024/03/23 10:15:34;;;;;;;8.73;1.35;;;9.90;99.90;;;;;;5052967;28;20163;-50
2024/03/23 10:18:18;;;;;;;8.77;0.85;;;9.80;99.90;;;;;;5053084;28;20091;-47
2024/03/23 10:20:46;;;;;;;10.70;1.75;;;9.60;99.90;;;;;;5053297;28;20380;-49
2024/03/23 10:23:18;;;;;;;11.18;1.45;;;9.50;99.90;;;;;;5053005;28;20025;-48
2024/03/23 10:25:45;;;;;;;8.40;1.13;;;9.50;99.90;;;;;;5052971;28;20104;-48
2024/03/23 10:28:11;;;;;;;7.70;1.58;;;9.40;99.90;;;;;;5053226;28;20024;-47
2024/03/23 10:30:37;;;;;;;2.88;1.17;;;9.50;99.90;;;;;;5053146;28;20468;-46
2024/03/23 10:33:10;;;;;;;8.07;1.42;;;9.40;99.90;;;;;;5052891;28;20032;-49
2024/03/23 10:35:37;;;;;;;2.60;0.85;;;9.10;99.90;;;;;;5053081;28;20428;-50
2024/03/23 10:38:06;;;;;;;6.57;1.02;;;8.80;99.90;;;;;;5052738;28;20029;-45
2024/03/23 10:40:34;;;;;;;6.53;0.52;;;8.40;99.90;;;;;;5052701;28;20025;-46
2024/03/23 10:43:00;;;;;;;7.38;0.77;;;8.30;99.90;;;;;;5052647;28;20025;-47
2024/03/23 10:45:25;;;;;;;7.57;0.77;;;8.50;99.90;;;;;;5052804;28;20484;-47
2024/03/23 10:47:51;;;;;;;6.78;0.98;;;8.70;99.90;;;;;;5052566;28;20025;-48
2024/03/23 10:50:17;;;;;;;5.28;0.90;;;9.10;99.90;;;;;;5051260;28;20551;-56
2024/03/23 10:52:47;;;;;;;12.65;0.70;;;9.10;99.90;;;;;;5052424;28;20040;-55
2024/03/23 10:55:15;;;;;;;7.28;1.02;;;9.20;99.90;;;;;;5052815;28;20354;-56
2024/03/23 10:57:44;;;;;;;;;;;9.20;99.90;;;;;;5052996;28;20495;-59
2024/03/23 11:00:11;;;;;;;3.95;1.42;;;9.30;99.90;;;;;;5052559;28;19960;-57
2024/03/23 11:02:37;;;;;;;6.78;1.17;;;9.70;99.90;;;;;;5050831;28;20489;-55
2024/03/23 11:05:26;;;;;;;8.40;1.60;;;10.00;99.90;;;;;;5052355;28;20103;-56
2024/03/23 11:07:53;;;;;;;3.80;0.85;;;10.10;99.90;;;;;;5052329;28;20457;-53
2024/03/23 11:10:30;;;;;;;8.23;2.28;;;10.00;99.90;;;;;;5052270;28;20482;-56
2024/03/23 11:12:59;;;;;;;4.10;1.00;;;9.70;99.90;;;;;;5052243;28;20028;-55
2024/03/23 11:15:24;;;;;;;4.63;1.08;;;9.70;99.90;;;;;;5050882;28;20052;-54
2024/03/23 11:18:22;;;;;;;5.97;0.80;;;9.90;99.90;;;;;;5050875;28;20171;-55
2024/03/23 11:20:47;;;;;;;;;;;10.20;99.90;;;;;;5051658;28;20048;-56
2024/03/23 11:23:29;;;;;;;4.00;0.93;;;10.50;99.90;;;;;;5051928;28;19905;-55
2024/03/23 11:25:54;;;;;;;9.57;1.85;;;10.30;99.90;;;;;;5052099;28;20363;-51
2024/03/23 11:28:21;;;;;;;2.95;1.13;;;10.20;99.90;;;;;;5052232;28;20078;-57
2024/03/23 11:30:47;;;;;;;11.18;1.40;;;10.00;99.90;;;;;;5051947;28;20104;-55
2024/03/23 11:33:12;;;;;;;7.18;1.65;;;10.10;99.90;;;;;;5052082;28;20555;-53
2024/03/23 11:35:40;;;;;;;5.28;0.77;;;10.40;99.90;;;;;;5051787;28;20082;-53
2024/03/23 11:38:17;;;;;;;8.10;1.23;;;10.60;99.90;;;;;;5051944;28;20444;-59
2024/03/23 11:40:48;;;;;;;7.95;1.10;;;10.60;99.90;;;;;;5049069;28;20033;-53
2024/03/23 11:43:22;;;;;;;4.60;2.17;;;10.80;99.90;;;;;;5050579;28;20470;-46
2024/03/23 11:45:54;;;;;;;7.22;0.82;;;10.90;99.90;;;;;;5046744;28;20013;-49
2024/03/23 11:48:21;;;;;;;2.78;0.95;;;11.10;99.90;;;;;;5051731;28;20028;-48
2024/03/23 11:50:48;;;;;;;12.25;1.20;;;11.20;99.90;;;;;;5051844;28;20013;-49
2024/03/23 11:53:19;;;;;;;4.70;1.30;;;11.30;99.90;;;;;;5051718;28;20303;-48
2024/03/23 11:55:50;;;;;;;3.38;1.27;;;11.40;99.90;;;;;;5051799;28;20075;-46
2024/03/23 11:58:17;;;;;;;6.38;1.35;;;11.10;99.90;;;;;;5052259;28;20469;-47
2024/03/23 12:00:50;;;;;;;8.52;1.55;;;10.60;99.90;;;;;;5051866;28;20024;-55
2024/03/23 12:03:18;;;;;;;9.77;2.10;;;10.20;99.90;;;;;;5051566;28;20028;-55
2024/03/23 12:05:48;;;;;;;14.57;2.17;;;10.10;99.90;;;;;;5051988;28;20060;-58
2024/03/23 12:08:41;;;;;;;16.67;1.48;;;10.30;99.90;;;;;;5051867;28;20512;-51
2024/03/23 12:11:16;;;;;;;15.85;1.15;;;10.60;99.90;;;;;;5050930;28;20049;-56
2024/03/23 12:13:45;;;;;;;3.08;0.82;;;11.00;99.90;;;;;;5051552;28;20033;-55
2024/03/23 12:16:29;;;;;;;17.30;1.35;;;11.00;99.90;;;;;;5051388;28;20544;-56
2024/03/23 12:19:05;;;;;;;8.63;1.38;;;10.70;99.90;;;;;;5051383;28;20108;-55
2024/03/23 12:21:31;;;;;;;7.35;0.93;;;10.20;99.90;;;;;;5051752;28;20108;-56
2024/03/23 12:23:58;;;;;;;6.78;1.40;;;9.90;99.90;;;;;;5051522;28;20059;-57
2024/03/23 12:26:24;;;;;;;6.40;1.00;;;9.80;99.90;;;;;;5051490;28;20021;-55
2024/03/23 12:28:49;;;;;;;10.25;2.03;;;10.00;99.90;;;;;;5051320;28;20143;-54
2024/03/23 12:31:15;;;;;;;9.93;1.58;;;10.10;99.90;;;;;;5051609;28;20444;-56
2024/03/23 12:33:41;;;;;;;5.05;1.08;;;10.20;99.90;;;;;;5054586;28;20033;-55
2024/03/23 12:36:06;;;;;;;7.78;0.95;;;10.40;99.90;;;;;;5053173;28;20033;-53
2024/03/23 12:38:32;;;;;;;7.38;0.73;;;10.60;99.90;;;;;;5054902;28;20021;-54
2024/03/23 12:40:58;;;;;;;5.60;0.85;;;11.00;99.90;;;;;;5054686;28;20469;-54
2024/03/23 12:43:23;;;;;;;10.70;1.13;;;11.20;99.90;;;;;;5054876;28;20108;-55
2024/03/23 12:45:50;;;;;;;7.13;1.38;;;11.30;99.90;;;;;;5055101;28;20099;-53
2024/03/23 12:48:18;;;;;;;4.90;0.80;;;11.60;99.90;;;;;;5054903;28;20031;-51